createdAt,value
2019-05-06T00:01:53.982Z,3.63
2019-05-06T00:04:24.712Z,3.70
2019-05-06T00:06:54.890Z,3.97
2019-05-06T00:09:24.100Z,3.77
2019-05-06T00:11:54.274Z,3.10
2019-05-06T00:14:23.686Z,3.50
2019-05-06T00:16:54.548Z,3.20
2019-05-06T00:19:24.682Z,4.37
2019-05-06T00:21:54.161Z,3.37
2019-05-06T00:24:25.040Z,2.90
2019-05-06T00:26:57.658Z,3.20
2019-05-06T00:29:27.513Z,3.37
2019-05-06T00:31:56.279Z,4.20
2019-05-06T00:34:25.011Z,3.80
2019-05-06T00:36:54.484Z,4.00
2019-05-06T00:39:27.903Z,3.87
2019-05-06T00:42:01.238Z,3.50
2019-05-06T00:44:29.975Z,3.83
2019-05-06T00:46:58.741Z,3.70
2019-05-06T00:49:27.472Z,3.30
2019-05-06T00:51:56.247Z,2.97
2019-05-06T00:54:27.296Z,3.90
2019-05-06T00:56:56.896Z,3.53
2019-05-06T00:59:26.369Z,4.20
2019-05-06T01:01:55.933Z,3.30
2019-05-06T01:04:25.395Z,4.00
2019-05-06T01:06:56.507Z,3.70
2019-05-06T01:09:25.774Z,5.20
2019-05-06T01:11:56.681Z,3.73
2019-05-06T01:14:32.831Z,3.27
2019-05-06T01:17:01.572Z,4.17
2019-05-06T01:19:30.336Z,5.10
2019-05-06T01:21:59.073Z,3.77
2019-05-06T01:24:27.940Z,3.52
2019-05-06T01:26:56.669Z,2.60
2019-05-06T01:29:25.695Z,4.30
2019-05-06T01:31:54.611Z,2.00
2019-05-06T01:34:24.529Z,3.80
2019-05-06T01:36:54.543Z,3.70
2019-05-06T01:39:34.275Z,2.47
2019-05-06T01:42:24.628Z,2.70
2019-05-06T01:44:53.894Z,3.73
2019-05-06T01:47:23.742Z,4.47
2019-05-06T01:49:53.731Z,3.10
2019-05-06T01:52:24.064Z,3.90
2019-05-06T01:54:54.252Z,3.90
2019-05-06T01:57:24.444Z,3.50
2019-05-06T01:59:54.014Z,4.10
2019-05-06T02:02:23.944Z,3.90
2019-05-06T02:04:54.040Z,3.73
2019-05-06T02:07:24.189Z,4.17
2019-05-06T02:09:54.293Z,3.47
2019-05-06T02:12:24.591Z,3.93
2019-05-06T02:14:54.348Z,3.70
2019-05-06T02:17:23.934Z,4.47
2019-05-06T02:19:54.625Z,4.80
2019-05-06T02:22:25.013Z,3.70
2019-05-06T02:25:04.584Z,4.03
2019-05-06T02:27:34.082Z,4.20
2019-05-06T02:30:10.802Z,5.17
2019-05-06T02:32:55.643Z,3.90
2019-05-06T02:35:26.407Z,4.13
2019-05-06T02:37:55.569Z,4.53
2019-05-06T02:40:29.249Z,4.20
2019-05-06T02:42:58.062Z,3.80
2019-05-06T02:45:26.853Z,3.77
2019-05-06T02:47:57.165Z,4.33
2019-05-06T02:50:45.670Z,4.50
2019-05-06T02:53:16.072Z,2.75
2019-05-06T02:55:44.814Z,4.77
2019-05-06T02:58:14.818Z,2.70
2019-05-06T03:00:44.281Z,3.47
2019-05-06T03:03:14.077Z,3.93
2019-05-06T03:05:43.886Z,3.00
2019-05-06T03:08:13.605Z,3.80
2019-05-06T03:10:44.097Z,3.67
2019-05-06T03:13:14.147Z,3.33
2019-05-06T03:15:43.771Z,4.67
2019-05-06T03:18:14.672Z,2.45
2019-05-06T03:20:53.319Z,3.72
2019-05-06T03:23:39.997Z,1.37
2019-05-06T03:26:08.870Z,2.17
2019-05-06T03:28:37.615Z,2.90
2019-05-06T03:31:07.726Z,4.00
2019-05-06T03:33:55.302Z,3.90
2019-05-06T03:36:18.809Z,3.97
2019-05-06T03:38:38.033Z,4.20
2019-05-06T03:41:06.827Z,3.70
2019-05-06T03:43:35.564Z,3.37
2019-05-06T03:46:09.246Z,4.07
2019-05-06T03:48:39.583Z,3.65
2019-05-06T03:51:08.341Z,3.50
2019-05-06T03:53:37.128Z,3.20
2019-05-06T03:56:05.969Z,2.80
2019-05-06T03:58:37.250Z,3.00
2019-05-06T04:01:05.977Z,3.33
2019-05-06T04:03:47.155Z,2.80
2019-05-06T04:06:05.222Z,3.00
2019-05-06T04:08:34.518Z,3.43
2019-05-06T04:11:04.177Z,2.80
2019-05-06T04:13:35.520Z,3.52
2019-05-06T04:16:07.116Z,3.52
2019-05-06T04:18:40.258Z,3.20
2019-05-06T04:21:16.732Z,3.50
2019-05-06T04:23:53.362Z,3.77
2019-05-06T04:26:23.934Z,3.17
2019-05-06T04:28:53.515Z,3.00
2019-05-06T04:31:22.920Z,2.60
2019-05-06T04:34:08.683Z,3.03
2019-05-06T04:36:23.993Z,2.67
2019-05-06T04:38:53.997Z,2.67
2019-05-06T04:41:26.776Z,2.83
2019-05-06T04:43:54.346Z,2.97
2019-05-06T04:46:23.730Z,3.03
2019-05-06T04:48:53.855Z,2.70
2019-05-06T04:51:24.813Z,2.70
2019-05-06T04:53:53.920Z,3.00
2019-05-06T04:56:24.721Z,2.25
2019-05-06T04:58:54.123Z,3.00
2019-05-06T05:01:23.396Z,2.90
2019-05-06T05:03:53.968Z,3.07
2019-05-06T05:06:23.193Z,3.23
2019-05-06T05:08:53.369Z,3.90
2019-05-06T05:11:23.900Z,3.00
2019-05-06T05:14:02.630Z,2.97
2019-05-06T05:16:33.125Z,3.67
2019-05-06T05:19:03.799Z,2.70
2019-05-06T05:21:32.763Z,3.00
2019-05-06T05:24:02.132Z,3.20
2019-05-06T05:26:32.220Z,2.67
2019-05-06T05:29:02.835Z,3.20
2019-05-06T05:31:33.191Z,3.43
2019-05-06T05:34:02.349Z,4.00
2019-05-06T05:36:33.543Z,3.92
2019-05-06T05:39:03.305Z,3.20
2019-05-06T05:41:33.220Z,4.00
2019-05-06T05:44:12.323Z,3.98
2019-05-06T05:46:41.239Z,3.40
2019-05-06T05:49:18.410Z,3.23
2019-05-06T05:51:45.545Z,3.97
2019-05-06T05:54:14.437Z,3.93
2019-05-06T05:56:43.647Z,4.10
2019-05-06T05:59:13.397Z,4.20
2019-05-06T06:01:43.427Z,4.83
2019-05-06T06:04:15.796Z,4.78
2019-05-06T06:06:44.636Z,4.20
2019-05-06T06:09:13.400Z,5.40
2019-05-06T06:11:44.310Z,5.07
2019-05-06T06:14:33.244Z,5.47
2019-05-06T06:17:03.706Z,5.60
2019-05-06T06:19:42.883Z,5.73
2019-05-06T06:22:16.179Z,4.22
2019-05-06T06:24:45.090Z,4.67
2019-05-06T06:27:13.855Z,5.00
2019-05-06T06:29:45.174Z,5.50
2019-05-06T06:32:23.946Z,5.28
2019-05-06T06:35:14.203Z,5.00
2019-05-06T06:37:59.111Z,4.77
2019-05-06T06:40:28.006Z,4.27
2019-05-06T06:42:58.310Z,3.83
2019-05-06T06:45:27.082Z,5.67
2019-05-06T06:47:55.921Z,4.53
2019-05-06T06:50:24.802Z,5.47
2019-05-06T06:52:53.857Z,5.37
2019-05-06T06:55:22.682Z,4.00
2019-05-06T06:57:57.686Z,4.90
2019-05-06T07:00:37.935Z,4.00
2019-05-06T07:03:08.440Z,4.73
2019-05-06T07:05:42.215Z,5.23
2019-05-06T07:08:12.547Z,4.40
2019-05-06T07:10:44.139Z,4.70
2019-05-06T07:13:26.988Z,4.75
2019-05-06T07:15:57.158Z,4.50
2019-05-06T07:18:25.916Z,4.93
2019-05-06T07:21:14.929Z,3.70
2019-05-06T07:23:45.839Z,4.90
2019-05-06T07:26:16.445Z,3.50
2019-05-06T07:28:45.206Z,4.40
2019-05-06T07:31:21.767Z,4.20
2019-05-06T07:33:44.560Z,4.33
2019-05-06T07:36:13.297Z,4.43
2019-05-06T07:38:44.090Z,3.17
2019-05-06T07:41:20.163Z,2.95
2019-05-06T07:43:56.472Z,4.00
2019-05-06T07:46:35.531Z,3.20
2019-05-06T07:49:04.439Z,2.30
2019-05-06T07:51:33.385Z,4.00
2019-05-06T07:54:02.836Z,3.27
2019-05-06T07:56:32.275Z,3.90
2019-05-06T07:59:09.950Z,3.10
2019-05-06T08:01:40.088Z,3.00
2019-05-06T08:04:09.089Z,2.60
2019-05-06T08:06:37.821Z,2.93
2019-05-06T08:09:08.968Z,2.30
2019-05-06T08:11:38.224Z,2.50
2019-05-06T08:14:07.695Z,1.20
2019-05-06T08:16:44.487Z,2.23
2019-05-06T08:19:13.312Z,2.80
2019-05-06T08:21:43.619Z,2.63
2019-05-06T08:24:12.392Z,2.30
2019-05-06T08:26:42.833Z,2.10
2019-05-06T08:29:12.572Z,2.10
2019-05-06T08:31:43.068Z,2.60
2019-05-06T08:34:12.309Z,3.08
2019-05-06T08:36:42.898Z,2.83
2019-05-06T08:39:13.054Z,2.90
2019-05-06T08:41:42.346Z,2.90
2019-05-06T08:44:12.767Z,2.55
2019-05-06T08:46:43.313Z,3.13
2019-05-06T08:49:12.371Z,3.10
2019-05-06T08:51:42.843Z,3.00
2019-05-06T08:54:22.709Z,2.20
2019-05-06T08:56:52.349Z,2.63
2019-05-06T08:59:21.233Z,2.70
2019-05-06T09:01:53.417Z,2.30
2019-05-06T09:04:22.776Z,2.70
2019-05-06T09:06:53.379Z,2.83
2019-05-06T09:09:22.594Z,2.20
2019-05-06T09:11:53.520Z,2.27
2019-05-06T09:14:23.289Z,2.22
2019-05-06T09:16:53.851Z,2.40
2019-05-06T09:19:23.476Z,1.57
2019-05-06T09:21:53.329Z,1.90
2019-05-06T09:24:23.071Z,1.65
2019-05-06T09:27:05.990Z,2.17
2019-05-06T09:29:36.306Z,1.97
2019-05-06T09:32:09.738Z,1.83
2019-05-06T09:34:49.187Z,1.83
2019-05-06T09:37:18.761Z,1.67
2019-05-06T09:39:47.809Z,1.60
2019-05-06T09:42:17.087Z,1.30
2019-05-06T09:44:50.215Z,1.30
2019-05-06T09:47:19.512Z,1.63
2019-05-06T09:49:49.151Z,1.40
2019-05-06T09:52:17.894Z,0.80
2019-05-06T09:54:48.253Z,1.83
2019-05-06T09:57:18.735Z,1.67
2019-05-06T09:59:47.623Z,1.80
2019-05-06T10:02:16.361Z,2.00
2019-05-06T10:04:45.179Z,2.10
2019-05-06T10:07:14.058Z,1.67
2019-05-06T10:09:43.585Z,2.58
2019-05-06T10:12:12.882Z,1.82
2019-05-06T10:14:43.401Z,1.63
2019-05-06T10:17:13.182Z,0.90
2019-05-06T10:19:42.969Z,0.90
2019-05-06T10:22:12.834Z,1.67
2019-05-06T10:24:43.097Z,1.83
2019-05-06T10:27:12.422Z,1.63
2019-05-06T10:29:43.351Z,1.47
2019-05-06T10:32:13.756Z,1.53
2019-05-06T10:34:43.515Z,1.87
2019-05-06T10:37:25.688Z,2.10
2019-05-06T10:40:06.376Z,2.20
2019-05-06T10:42:46.915Z,2.70
2019-05-06T10:45:18.703Z,1.90
2019-05-06T10:47:47.450Z,2.17
2019-05-06T10:50:16.188Z,2.23
2019-05-06T10:53:02.859Z,3.00
2019-05-06T10:55:32.477Z,1.93
2019-05-06T10:58:02.624Z,1.90
2019-05-06T11:00:33.273Z,1.50
2019-05-06T11:03:18.797Z,2.10
2019-05-06T11:05:47.765Z,2.33
2019-05-06T11:08:16.502Z,2.73
2019-05-06T11:10:45.806Z,3.00
2019-05-06T11:13:14.801Z,2.80
2019-05-06T11:15:43.652Z,2.47
2019-05-06T11:18:13.562Z,3.03
2019-05-06T11:20:43.744Z,2.53
2019-05-06T11:23:14.193Z,2.77
2019-05-06T11:25:44.908Z,3.00
2019-05-06T11:28:34.901Z,2.33
2019-05-06T11:31:09.366Z,2.73
2019-05-06T11:33:44.504Z,1.60
2019-05-06T11:36:15.611Z,2.70
2019-05-06T11:38:48.362Z,2.30
2019-05-06T11:41:15.906Z,2.37
2019-05-06T11:43:44.668Z,4.37
2019-05-06T11:46:13.993Z,3.17
2019-05-06T11:48:43.275Z,2.20
2019-05-06T11:51:15.092Z,2.97
2019-05-06T11:53:43.898Z,3.43
2019-05-06T11:56:13.280Z,3.07
2019-05-06T11:58:57.034Z,3.70
2019-05-06T12:01:27.871Z,2.93
2019-05-06T12:03:56.660Z,3.50
2019-05-06T12:06:26.104Z,3.67
2019-05-06T12:08:55.816Z,4.27
2019-05-06T12:11:24.677Z,3.97
2019-05-06T12:13:53.537Z,4.03
2019-05-06T12:16:26.017Z,4.53
2019-05-06T12:18:53.074Z,3.33
2019-05-06T12:21:23.193Z,3.80
2019-05-06T12:23:53.800Z,3.17
2019-05-06T12:26:23.409Z,2.80
2019-05-06T12:28:57.523Z,3.13
2019-05-06T12:31:26.481Z,2.70
2019-05-06T12:33:55.307Z,3.30
2019-05-06T12:36:24.201Z,2.90
2019-05-06T12:39:16.225Z,3.27
2019-05-06T12:41:44.407Z,3.50
2019-05-06T12:44:13.704Z,2.27
2019-05-06T12:46:49.771Z,3.10
2019-05-06T12:49:18.800Z,3.22
2019-05-06T12:51:47.739Z,4.00
2019-05-06T12:54:17.675Z,3.73
2019-05-06T12:56:47.826Z,3.20
2019-05-06T12:59:16.666Z,3.40
2019-05-06T13:01:46.079Z,4.30
2019-05-06T13:04:15.003Z,4.20
2019-05-06T13:06:46.124Z,3.70
2019-05-06T13:09:14.447Z,5.00
2019-05-06T13:11:43.327Z,5.00
2019-05-06T13:14:12.837Z,5.13
2019-05-06T13:16:42.717Z,5.90
2019-05-06T13:19:12.664Z,5.00
2019-05-06T13:21:42.208Z,4.57
2019-05-06T13:24:12.095Z,4.33
2019-05-06T13:26:43.099Z,5.37
2019-05-06T13:29:13.990Z,5.28
2019-05-06T13:31:43.720Z,4.93
2019-05-06T13:34:17.409Z,4.37
2019-05-06T13:36:46.572Z,4.50
2019-05-06T13:39:15.852Z,4.03
2019-05-06T13:41:44.731Z,3.97
2019-05-06T13:44:14.933Z,4.60
2019-05-06T13:46:45.427Z,4.23
2019-05-06T13:49:22.720Z,4.10
2019-05-06T13:52:03.390Z,3.97
2019-05-06T13:54:29.802Z,3.53
2019-05-06T13:56:58.604Z,3.37
2019-05-06T13:59:30.242Z,3.30
2019-05-06T14:01:59.565Z,4.03
2019-05-06T14:04:28.417Z,3.03
2019-05-06T14:06:57.306Z,4.60
2019-05-06T14:09:32.555Z,5.00
2019-05-06T14:11:56.651Z,5.50
2019-05-06T14:14:25.395Z,6.20
2019-05-06T14:16:54.161Z,6.07
2019-05-06T14:19:23.327Z,5.90
2019-05-06T14:21:52.450Z,6.70
2019-05-06T14:24:22.322Z,6.03
2019-05-06T14:26:58.561Z,4.70
2019-05-06T14:29:49.280Z,6.63
2019-05-06T14:32:18.088Z,4.65
2019-05-06T14:34:46.902Z,6.23
2019-05-06T14:37:15.668Z,4.30
2019-05-06T14:39:59.209Z,4.83
2019-05-06T14:42:25.470Z,3.33
2019-05-06T14:44:54.277Z,4.47
2019-05-06T14:47:29.969Z,4.70
2019-05-06T14:50:00.247Z,3.90
2019-05-06T14:52:29.136Z,4.80
2019-05-06T14:54:59.496Z,3.37
2019-05-06T14:57:32.110Z,3.53
2019-05-06T15:00:01.318Z,4.10
2019-05-06T15:02:33.738Z,4.57
2019-05-06T15:05:03.058Z,4.47
2019-05-06T15:07:33.069Z,4.67
2019-05-06T15:10:19.005Z,4.43
2019-05-06T15:12:34.194Z,4.90
2019-05-06T15:15:04.335Z,4.87
2019-05-06T15:17:36.754Z,4.73
2019-05-06T15:20:06.256Z,4.97
2019-05-06T15:22:39.022Z,4.67
2019-05-06T15:25:08.312Z,5.47
2019-05-06T15:27:42.494Z,5.00
2019-05-06T15:30:18.056Z,5.33
2019-05-06T15:32:46.854Z,4.90
2019-05-06T15:35:17.240Z,4.83
2019-05-06T15:37:47.724Z,5.13
2019-05-06T15:40:30.163Z,6.20
2019-05-06T15:42:47.128Z,5.30
2019-05-06T15:45:16.146Z,5.60
2019-05-06T15:47:45.418Z,6.20
2019-05-06T15:50:14.955Z,5.43
2019-05-06T15:52:43.883Z,4.70
2019-05-06T15:55:12.830Z,4.90
2019-05-06T15:57:43.441Z,5.87
2019-05-06T16:00:17.099Z,5.60
2019-05-06T16:02:47.176Z,6.03
2019-05-06T16:05:20.846Z,6.37
2019-05-06T16:07:52.850Z,6.78
2019-05-06T16:10:22.570Z,5.90
2019-05-06T16:12:53.471Z,6.27
2019-05-06T16:15:25.243Z,5.73
2019-05-06T16:17:57.783Z,6.15
2019-05-06T16:20:26.712Z,6.50
2019-05-06T16:22:57.161Z,7.50
2019-05-06T16:25:26.005Z,6.60
2019-05-06T16:27:56.781Z,7.60
2019-05-06T16:30:25.642Z,7.47
2019-05-06T16:32:56.911Z,7.27
2019-05-06T16:35:26.025Z,7.27
2019-05-06T16:37:54.829Z,6.33
2019-05-06T16:40:23.738Z,8.07
2019-05-06T16:42:54.630Z,6.47
2019-05-06T16:45:23.721Z,6.97
2019-05-06T16:47:53.022Z,7.77
2019-05-06T16:50:22.709Z,6.80
2019-05-06T16:52:52.621Z,7.00
2019-05-06T16:55:24.279Z,8.03
2019-05-06T16:57:55.032Z,6.70
2019-05-06T17:00:25.398Z,6.87
2019-05-06T17:02:57.772Z,6.77
2019-05-06T17:05:37.152Z,7.67
2019-05-06T17:08:06.146Z,6.23
2019-05-06T17:10:35.069Z,7.00
2019-05-06T17:13:04.259Z,7.20
2019-05-06T17:15:33.426Z,7.00
2019-05-06T17:18:03.126Z,7.20
2019-05-06T17:20:33.011Z,8.33
2019-05-06T17:23:02.836Z,6.60
2019-05-06T17:25:33.459Z,7.47
2019-05-06T17:28:04.365Z,5.50
2019-05-06T17:30:51.640Z,4.10
2019-05-06T17:33:37.459Z,3.20
2019-05-06T17:36:07.815Z,3.30
2019-05-06T17:38:46.892Z,4.20
2019-05-06T17:41:15.668Z,3.20
2019-05-06T17:43:44.564Z,3.27
2019-05-06T17:46:15.016Z,3.25
2019-05-06T17:48:48.316Z,2.70
2019-05-06T17:51:18.960Z,3.90
2019-05-06T17:53:52.088Z,3.37
2019-05-06T17:56:22.196Z,3.80
2019-05-06T17:58:52.948Z,3.03
2019-05-06T18:01:32.668Z,3.43
2019-05-06T18:04:02.302Z,3.10
2019-05-06T18:06:32.992Z,3.20
2019-05-06T18:09:02.551Z,3.70
2019-05-06T18:11:33.194Z,2.73
2019-05-06T18:14:04.087Z,3.60
2019-05-06T18:16:33.490Z,3.60
2019-05-06T18:19:03.261Z,3.10
2019-05-06T18:21:32.418Z,3.33
2019-05-06T18:24:02.976Z,3.73
2019-05-06T18:26:33.664Z,2.90
2019-05-06T18:29:02.735Z,2.87
2019-05-06T18:31:33.448Z,3.60
2019-05-06T18:34:03.258Z,3.63
2019-05-06T18:36:32.652Z,3.10
2019-05-06T18:39:03.274Z,3.90
2019-05-06T18:41:38.343Z,4.10
2019-05-06T18:44:07.196Z,3.45
2019-05-06T18:46:36.143Z,3.20
2019-05-06T18:49:05.381Z,3.60
2019-05-06T18:51:34.139Z,4.25
2019-05-06T18:54:03.178Z,3.08
2019-05-06T18:56:32.485Z,4.35
2019-05-06T18:59:02.827Z,3.27
2019-05-06T19:01:32.790Z,3.70
2019-05-06T19:04:12.898Z,4.33
2019-05-06T19:06:42.255Z,3.47
2019-05-06T19:09:24.617Z,4.20
2019-05-06T19:11:54.479Z,3.43
2019-05-06T19:14:23.474Z,3.80
2019-05-06T19:16:55.013Z,4.10
2019-05-06T19:19:23.351Z,4.77
2019-05-06T19:21:52.547Z,5.50
2019-05-06T19:24:22.659Z,6.10
2019-05-06T19:26:52.767Z,6.00
2019-05-06T19:29:23.171Z,4.63
2019-05-06T19:31:52.316Z,3.90
2019-05-06T19:34:23.639Z,4.12
2019-05-06T19:36:53.031Z,4.10
2019-05-06T19:39:23.278Z,4.93
2019-05-06T19:41:52.113Z,5.20
2019-05-06T19:44:22.104Z,5.40
2019-05-06T19:46:53.298Z,5.50
2019-05-06T19:49:23.952Z,5.80
2019-05-06T19:51:52.808Z,9.33
2019-05-06T19:54:22.485Z,4.60
2019-05-06T19:56:52.661Z,5.07
2019-05-06T19:59:21.757Z,5.70
2019-05-06T20:01:52.421Z,6.57
2019-05-06T20:04:22.749Z,6.03
2019-05-06T20:07:02.598Z,6.40
2019-05-06T20:09:49.278Z,7.72
2019-05-06T20:12:37.480Z,6.10
2019-05-06T20:15:26.974Z,6.50
2019-05-06T20:17:55.825Z,8.25
2019-05-06T20:20:25.757Z,6.20
2019-05-06T20:22:55.935Z,6.40
2019-05-06T20:25:26.644Z,5.67
2019-05-06T20:27:56.119Z,5.23
2019-05-06T20:30:26.337Z,5.07
2019-05-06T20:32:55.635Z,4.30
2019-05-06T20:35:24.976Z,4.80
2019-05-06T20:37:55.911Z,5.20
2019-05-06T20:40:24.856Z,6.43
2019-05-06T20:42:54.713Z,7.67
2019-05-06T20:45:24.752Z,7.93
2019-05-06T20:47:53.587Z,8.07
2019-05-06T20:50:23.479Z,8.00
2019-05-06T20:52:52.388Z,8.80
2019-05-06T20:55:22.889Z,7.13
2019-05-06T20:57:53.177Z,8.63
2019-05-06T21:00:22.508Z,7.13
2019-05-06T21:02:53.398Z,7.10
2019-05-06T21:05:22.797Z,7.93
2019-05-06T21:07:52.553Z,8.10
2019-05-06T21:10:22.035Z,7.22
2019-05-06T21:12:53.031Z,7.30
2019-05-06T21:15:22.956Z,7.13
2019-05-06T21:17:51.896Z,6.80
2019-05-06T21:20:20.790Z,6.17
2019-05-06T21:22:49.606Z,6.43
2019-05-06T21:25:18.532Z,8.35
2019-05-06T21:27:47.261Z,6.90
2019-05-06T21:30:16.431Z,7.13
2019-05-06T21:32:45.345Z,8.03
2019-05-06T21:35:14.775Z,7.90
2019-05-06T21:37:43.581Z,6.20
2019-05-06T21:40:12.544Z,7.95
2019-05-06T21:42:43.104Z,6.10
2019-05-06T21:45:12.920Z,6.47
2019-05-06T21:47:44.335Z,7.47
2019-05-06T21:50:12.544Z,7.62
2019-05-06T21:52:43.100Z,7.10
2019-05-06T21:55:13.308Z,5.37
2019-05-06T21:57:42.452Z,7.60
2019-05-06T22:00:16.854Z,6.87
2019-05-06T22:02:44.200Z,7.40
2019-05-06T22:05:13.743Z,6.60
2019-05-06T22:07:43.495Z,5.40
2019-05-06T22:10:12.915Z,6.00
2019-05-06T22:12:43.347Z,6.47
2019-05-06T22:15:12.611Z,6.27
2019-05-06T22:17:42.922Z,4.93
2019-05-06T22:20:11.917Z,6.87
2019-05-06T22:22:42.689Z,6.93
2019-05-06T22:25:12.484Z,6.40
2019-05-06T22:27:42.452Z,5.77
2019-05-06T22:30:12.239Z,5.70
2019-05-06T22:32:47.064Z,6.00
2019-05-06T22:35:17.580Z,6.95
2019-05-06T22:37:46.460Z,6.20
2019-05-06T22:40:15.300Z,6.10
2019-05-06T22:42:44.061Z,5.77
2019-05-06T22:45:13.110Z,5.53
2019-05-06T22:47:42.232Z,6.57
2019-05-06T22:50:13.117Z,5.57
2019-05-06T22:52:42.338Z,6.40
2019-05-06T22:55:13.048Z,6.10
2019-05-06T22:57:42.320Z,6.80
2019-05-06T23:00:15.158Z,6.50
2019-05-06T23:02:48.774Z,5.73
2019-05-06T23:05:17.524Z,6.30
2019-05-06T23:07:46.363Z,5.80
2019-05-06T23:10:15.245Z,6.40
2019-05-06T23:12:44.012Z,5.40
2019-05-06T23:15:12.851Z,5.72
2019-05-06T23:17:42.070Z,6.70
2019-05-06T23:20:11.272Z,6.03
2019-05-06T23:22:42.148Z,6.20
2019-05-06T23:25:12.550Z,6.53
2019-05-06T23:27:43.845Z,6.20
2019-05-06T23:30:12.788Z,6.00
2019-05-06T23:32:42.217Z,6.23
2019-05-06T23:35:12.842Z,6.53
2019-05-06T23:38:17.535Z,6.33
2019-05-06T23:41:22.117Z,6.33
2019-05-06T23:44:26.622Z,6.83
2019-05-06T23:47:31.163Z,6.90
2019-05-06T23:50:35.516Z,6.20
2019-05-06T23:53:40.238Z,6.80
2019-05-06T23:56:44.619Z,6.63
2019-05-06T23:59:15.570Z,7.37
